sensor_id;sensor_type;location;lat;lon;timestamp;pressure;altitude;pressure_sealevel;temperature;humidity
16451;BME280;12243;42.708;23.310;2023-06-22T00:02:02;95440.59;;;19.75;95.96
16451;BME280;12243;42.708;23.310;2023-06-22T00:04:29;95432.53;;;19.69;96.27
16451;BME280;12243;42.708;23.310;2023-06-22T00:06:56;95436.81;;;19.70;96.77
16451;BME280;12243;42.708;23.310;2023-06-22T00:09:23;95430.00;;;19.75;95.95
16451;BME280;12243;42.708;23.310;2023-06-22T00:11:49;95423.78;;;19.68;95.86
16451;BME280;12243;42.708;23.310;2023-06-22T00:14:16;95424.09;;;19.73;96.21
16451;BME280;12243;42.708;23.310;2023-06-22T00:16:44;95431.03;;;19.74;95.99
16451;BME280;12243;42.708;23.310;2023-06-22T00:19:15;95431.19;;;19.73;96.28
16451;BME280;12243;42.708;23.310;2023-06-22T00:21:42;95435.16;;;19.69;97.11
16451;BME280;12243;42.708;23.310;2023-06-22T00:24:12;95421.66;;;19.64;97.27
16451;BME280;12243;42.708;23.310;2023-06-22T00:26:39;95417.34;;;19.63;97.55
16451;BME280;12243;42.708;23.310;2023-06-22T00:29:09;95409.13;;;19.58;97.79
16451;BME280;12243;42.708;23.310;2023-06-22T00:31:35;95413.06;;;19.62;97.27
16451;BME280;12243;42.708;23.310;2023-06-22T00:34:02;95413.94;;;19.54;96.93
16451;BME280;12243;42.708;23.310;2023-06-22T00:36:30;95413.41;;;19.59;96.76
16451;BME280;12243;42.708;23.310;2023-06-22T00:38:57;95408.75;;;19.69;95.69
16451;BME280;12243;42.708;23.310;2023-06-22T00:41:24;95407.22;;;19.74;94.76
16451;BME280;12243;42.708;23.310;2023-06-22T00:43:54;95409.06;;;19.74;94.14
16451;BME280;12243;42.708;23.310;2023-06-22T00:46:21;95410.88;;;19.73;94.22
16451;BME280;12243;42.708;23.310;2023-06-22T00:48:48;95408.41;;;19.72;94.87
16451;BME280;12243;42.708;23.310;2023-06-22T00:51:15;95409.56;;;19.69;94.74
16451;BME280;12243;42.708;23.310;2023-06-22T00:53:44;95419.66;;;19.66;95.79
16451;BME280;12243;42.708;23.310;2023-06-22T00:56:12;95415.19;;;19.66;95.42
16451;BME280;12243;42.708;23.310;2023-06-22T00:58:39;95417.38;;;19.55;95.58
16451;BME280;12243;42.708;23.310;2023-06-22T01:01:07;95420.72;;;19.48;95.84
16451;BME280;12243;42.708;23.310;2023-06-22T01:03:34;95429.47;;;19.49;95.76
16451;BME280;12243;42.708;23.310;2023-06-22T01:06:08;95431.13;;;19.50;95.45
16451;BME280;12243;42.708;23.310;2023-06-22T01:08:45;95432.28;;;19.47;95.29
16451;BME280;12243;42.708;23.310;2023-06-22T01:11:20;95425.91;;;19.34;95.91
16451;BME280;12243;42.708;23.310;2023-06-22T01:13:54;95417.50;;;19.30;96.28
16451;BME280;12243;42.708;23.310;2023-06-22T01:16:28;95418.50;;;19.29;95.90
16451;BME280;12243;42.708;23.310;2023-06-22T01:18:57;95422.00;;;19.21;96.19
16451;BME280;12243;42.708;23.310;2023-06-22T01:21:29;95421.66;;;19.24;95.81
16451;BME280;12243;42.708;23.310;2023-06-22T01:24:10;95417.03;;;19.26;96.11
16451;BME280;12243;42.708;23.310;2023-06-22T01:26:43;95425.81;;;19.19;96.46
16451;BME280;12243;42.708;23.310;2023-06-22T01:29:14;95425.50;;;19.14;96.92
16451;BME280;12243;42.708;23.310;2023-06-22T01:31:44;95437.56;;;19.08;97.42
16451;BME280;12243;42.708;23.310;2023-06-22T01:34:12;95442.22;;;18.98;97.84
16451;BME280;12243;42.708;23.310;2023-06-22T01:36:40;95442.38;;;18.96;98.13
16451;BME280;12243;42.708;23.310;2023-06-22T01:39:07;95442.22;;;18.98;98.98
16451;BME280;12243;42.708;23.310;2023-06-22T01:41:37;95444.66;;;19.08;98.55
16451;BME280;12243;42.708;23.310;2023-06-22T01:44:05;95436.28;;;18.96;98.50
16451;BME280;12243;42.708;23.310;2023-06-22T01:46:34;95441.72;;;18.86;99.96
16451;BME280;12243;42.708;23.310;2023-06-22T01:49:02;95434.84;;;18.61;100.00
16451;BME280;12243;42.708;23.310;2023-06-22T01:51:29;95437.81;;;18.57;100.00
16451;BME280;12243;42.708;23.310;2023-06-22T01:53:59;95447.03;;;18.53;100.00
16451;BME280;12243;42.708;23.310;2023-06-22T01:56:26;95451.81;;;18.66;100.00
16451;BME280;12243;42.708;23.310;2023-06-22T01:58:59;95449.69;;;18.53;100.00
16451;BME280;12243;42.708;23.310;2023-06-22T02:01:32;95454.63;;;18.56;100.00
16451;BME280;12243;42.708;23.310;2023-06-22T02:04:13;95468.13;;;18.62;100.00
16451;BME280;12243;42.708;23.310;2023-06-22T02:06:43;95462.84;;;18.62;100.00
16451;BME280;12243;42.708;23.310;2023-06-22T02:09:15;95465.19;;;18.56;100.00
16451;BME280;12243;42.708;23.310;2023-06-22T02:11:45;95466.50;;;18.61;99.96
16451;BME280;12243;42.708;23.310;2023-06-22T02:14:13;95464.69;;;18.53;100.00
16451;BME280;12243;42.708;23.310;2023-06-22T02:16:42;95449.53;;;18.47;100.00
16451;BME280;12243;42.708;23.310;2023-06-22T02:19:10;95450.00;;;18.50;100.00
16451;BME280;12243;42.708;23.310;2023-06-22T02:21:37;95451.31;;;18.54;99.93
16451;BME280;12243;42.708;23.310;2023-06-22T02:24:04;95457.09;;;18.50;100.00
16451;BME280;12243;42.708;23.310;2023-06-22T02:26:32;95453.00;;;18.39;100.00
16451;BME280;12243;42.708;23.310;2023-06-22T02:29:01;95449.03;;;18.35;100.00
16451;BME280;12243;42.708;23.310;2023-06-22T02:31:28;95444.09;;;18.24;100.00
16451;BME280;12243;42.708;23.310;2023-06-22T02:33:56;95443.25;;;18.23;100.00
16451;BME280;12243;42.708;23.310;2023-06-22T02:36:25;95446.41;;;18.35;100.00
16451;BME280;12243;42.708;23.310;2023-06-22T02:38:56;95449.38;;;18.32;100.00
16451;BME280;12243;42.708;23.310;2023-06-22T02:41:26;95452.50;;;18.27;100.00
16451;BME280;12243;42.708;23.310;2023-06-22T02:43:55;95448.53;;;18.23;100.00
16451;BME280;12243;42.708;23.310;2023-06-22T02:46:22;95453.31;;;18.20;100.00
16451;BME280;12243;42.708;23.310;2023-06-22T02:48:49;95452.50;;;18.19;100.00
16451;BME280;12243;42.708;23.310;2023-06-22T02:51:16;95454.81;;;18.30;100.00
16451;BME280;12243;42.708;23.310;2023-06-22T02:53:44;95452.50;;;18.19;100.00
16451;BME280;12243;42.708;23.310;2023-06-22T02:56:14;95450.34;;;18.15;100.00
16451;BME280;12243;42.708;23.310;2023-06-22T02:58:41;95457.63;;;18.21;100.00
16451;BME280;12243;42.708;23.310;2023-06-22T03:01:10;95454.50;;;18.17;100.00
16451;BME280;12243;42.708;23.310;2023-06-22T03:03:39;95454.66;;;18.24;100.00
16451;BME280;12243;42.708;23.310;2023-06-22T03:06:09;95456.47;;;18.31;100.00
16451;BME280;12243;42.708;23.310;2023-06-22T03:08:39;95455.47;;;18.24;100.00
16451;BME280;12243;42.708;23.310;2023-06-22T03:11:09;95461.22;;;18.12;100.00
16451;BME280;12243;42.708;23.310;2023-06-22T03:13:36;95472.91;;;18.09;100.00
16451;BME280;12243;42.708;23.310;2023-06-22T03:16:03;95478.03;;;18.19;100.00
16451;BME280;12243;42.708;23.310;2023-06-22T03:18:31;95474.09;;;18.23;100.00
16451;BME280;12243;42.708;23.310;2023-06-22T03:20:58;95475.56;;;18.17;100.00
16451;BME280;12243;42.708;23.310;2023-06-22T03:23:25;95483.00;;;18.22;100.00
16451;BME280;12243;42.708;23.310;2023-06-22T03:25:52;95481.00;;;18.32;100.00
16451;BME280;12243;42.708;23.310;2023-06-22T03:28:22;95482.69;;;18.41;100.00
16451;BME280;12243;42.708;23.310;2023-06-22T03:30:49;95486.44;;;18.47;100.00
16451;BME280;12243;42.708;23.310;2023-06-22T03:33:16;95493.88;;;18.60;100.00
16451;BME280;12243;42.708;23.310;2023-06-22T03:35:43;95492.25;;;18.83;100.00
16451;BME280;12243;42.708;23.310;2023-06-22T03:38:10;95489.47;;;19.32;100.00
16451;BME280;12243;42.708;23.310;2023-06-22T03:40:37;95499.81;;;19.89;96.92
16451;BME280;12243;42.708;23.310;2023-06-22T03:43:04;95499.22;;;20.33;93.78
16451;BME280;12243;42.708;23.310;2023-06-22T03:45:33;95493.44;;;20.76;91.24
16451;BME280;12243;42.708;23.310;2023-06-22T03:48:00;95500.00;;;21.17;88.11
16451;BME280;12243;42.708;23.310;2023-06-22T03:50:27;95506.88;;;21.42;85.53
16451;BME280;12243;42.708;23.310;2023-06-22T03:52:55;95515.28;;;21.60;84.09
16451;BME280;12243;42.708;23.310;2023-06-22T03:55:22;95517.09;;;21.74;82.09
16451;BME280;12243;42.708;23.310;2023-06-22T03:57:49;95511.06;;;21.80;80.58
16451;BME280;12243;42.708;23.310;2023-06-22T04:00:16;95505.22;;;21.70;80.63
16451;BME280;12243;42.708;23.310;2023-06-22T04:02:44;95507.44;;;21.52;81.68
16451;BME280;12243;42.708;23.310;2023-06-22T04:05:11;95513.09;;;21.49;82.31
16451;BME280;12243;42.708;23.310;2023-06-22T04:07:38;95509.63;;;21.63;81.94
16451;BME280;12243;42.708;23.310;2023-06-22T04:10:06;95506.97;;;21.99;80.74
16451;BME280;12243;42.708;23.310;2023-06-22T04:12:33;95501.69;;;22.57;77.91
16451;BME280;12243;42.708;23.310;2023-06-22T04:15:00;95500.03;;;22.99;75.71
16451;BME280;12243;42.708;23.310;2023-06-22T04:17:27;95494.91;;;23.32;73.40
16451;BME280;12243;42.708;23.310;2023-06-22T04:19:55;95498.72;;;23.51;71.23
16451;BME280;12243;42.708;23.310;2023-06-22T04:22:23;95487.13;;;23.65;70.87
16451;BME280;12243;42.708;23.310;2023-06-22T04:24:51;95477.13;;;23.67;70.61
16451;BME280;12243;42.708;23.310;2023-06-22T04:27:19;95478.41;;;23.85;69.61
16451;BME280;12243;42.708;23.310;2023-06-22T04:29:48;95484.69;;;24.18;68.51
16451;BME280;12243;42.708;23.310;2023-06-22T04:32:16;95478.00;;;24.49;67.57
16451;BME280;12243;42.708;23.310;2023-06-22T04:34:44;95481.91;;;24.66;66.09
16451;BME280;12243;42.708;23.310;2023-06-22T04:37:12;95495.44;;;24.85;65.49
16451;BME280;12243;42.708;23.310;2023-06-22T04:39:41;95482.53;;;24.95;64.68
16451;BME280;12243;42.708;23.310;2023-06-22T04:42:08;95484.34;;;25.28;63.90
16451;BME280;12243;42.708;23.310;2023-06-22T04:44:35;95488.41;;;25.57;62.67
16451;BME280;12243;42.708;23.310;2023-06-22T04:47:02;95487.66;;;26.01;61.69
16451;BME280;12243;42.708;23.310;2023-06-22T04:49:34;95499.13;;;26.47;59.83
16451;BME280;12243;42.708;23.310;2023-06-22T04:52:03;95496.50;;;26.72;57.99
16451;BME280;12243;42.708;23.310;2023-06-22T04:54:32;95504.13;;;26.93;57.65
16451;BME280;12243;42.708;23.310;2023-06-22T04:57:00;95504.97;;;27.19;57.12
16451;BME280;12243;42.708;23.310;2023-06-22T04:59:27;95502.03;;;27.45;55.58
16451;BME280;12243;42.708;23.310;2023-06-22T05:01:55;95505.16;;;27.61;54.94
16451;BME280;12243;42.708;23.310;2023-06-22T05:04:23;95502.81;;;27.89;53.80
16451;BME280;12243;42.708;23.310;2023-06-22T05:06:50;95499.00;;;28.15;53.05
16451;BME280;12243;42.708;23.310;2023-06-22T05:09:17;95499.97;;;28.21;52.82
16451;BME280;12243;42.708;23.310;2023-06-22T05:11:46;95499.03;;;28.45;51.49
16451;BME280;12243;42.708;23.310;2023-06-22T05:14:13;95497.25;;;28.39;50.83
16451;BME280;12243;42.708;23.310;2023-06-22T05:16:41;95500.59;;;28.65;50.64
16451;BME280;12243;42.708;23.310;2023-06-22T05:19:08;95504.06;;;29.07;50.01
16451;BME280;12243;42.708;23.310;2023-06-22T05:21:35;95503.50;;;29.17;48.68
16451;BME280;12243;42.708;23.310;2023-06-22T05:24:03;95513.09;;;29.36;48.85
16451;BME280;12243;42.708;23.310;2023-06-22T05:26:31;95507.81;;;29.53;48.22
16451;BME280;12243;42.708;23.310;2023-06-22T05:29:01;95508.75;;;29.71;47.66
16451;BME280;12243;42.708;23.310;2023-06-22T05:31:28;95508.16;;;29.80;47.24
16451;BME280;12243;42.708;23.310;2023-06-22T05:33:57;95516.09;;;29.99;46.62
16451;BME280;12243;42.708;23.310;2023-06-22T05:36:25;95517.31;;;30.08;46.23
16451;BME280;12243;42.708;23.310;2023-06-22T05:38:52;95511.94;;;30.08;46.07
16451;BME280;12243;42.708;23.310;2023-06-22T05:41:20;95525.63;;;30.18;46.74
16451;BME280;12243;42.708;23.310;2023-06-22T05:43:47;95529.56;;;30.27;46.29
16451;BME280;12243;42.708;23.310;2023-06-22T05:46:15;95530.38;;;30.16;46.02
16451;BME280;12243;42.708;23.310;2023-06-22T05:48:42;95525.38;;;30.08;46.60
16451;BME280;12243;42.708;23.310;2023-06-22T05:51:10;95522.81;;;30.13;46.37
16451;BME280;12243;42.708;23.310;2023-06-22T05:53:36;95521.50;;;29.75;46.97
16451;BME280;12243;42.708;23.310;2023-06-22T05:56:03;95521.97;;;29.72;46.36
16451;BME280;12243;42.708;23.310;2023-06-22T05:58:31;95526.28;;;29.73;46.55
16451;BME280;12243;42.708;23.310;2023-06-22T06:00:58;95519.59;;;29.87;46.77
16451;BME280;12243;42.708;23.310;2023-06-22T06:03:27;95523.41;;;30.03;46.28
16451;BME280;12243;42.708;23.310;2023-06-22T06:05:54;95515.91;;;30.05;46.12
16451;BME280;12243;42.708;23.310;2023-06-22T06:08:22;95521.06;;;30.07;46.05
16451;BME280;12243;42.708;23.310;2023-06-22T06:10:49;95519.81;;;29.98;46.11
16451;BME280;12243;42.708;23.310;2023-06-22T06:13:18;95519.72;;;29.93;46.60
16451;BME280;12243;42.708;23.310;2023-06-22T06:15:47;95511.25;;;30.24;46.50
16451;BME280;12243;42.708;23.310;2023-06-22T06:18:17;95508.97;;;30.61;45.82
16451;BME280;12243;42.708;23.310;2023-06-22T06:20:45;95514.19;;;30.68;45.06
16451;BME280;12243;42.708;23.310;2023-06-22T06:23:12;95518.34;;;31.04;44.59
16451;BME280;12243;42.708;23.310;2023-06-22T06:25:41;95516.84;;;31.30;44.47
16451;BME280;12243;42.708;23.310;2023-06-22T06:28:08;95518.69;;;31.42;43.05
16451;BME280;12243;42.708;23.310;2023-06-22T06:30:34;95512.94;;;31.55;42.91
16451;BME280;12243;42.708;23.310;2023-06-22T06:33:02;95514.41;;;31.63;42.84
16451;BME280;12243;42.708;23.310;2023-06-22T06:35:30;95506.06;;;31.64;42.90
16451;BME280;12243;42.708;23.310;2023-06-22T06:37:58;95508.41;;;31.77;42.82
16451;BME280;12243;42.708;23.310;2023-06-22T06:40:25;95504.97;;;32.04;42.09
16451;BME280;12243;42.708;23.310;2023-06-22T06:42:52;95495.22;;;31.98;42.31
16451;BME280;12243;42.708;23.310;2023-06-22T06:45:20;95495.44;;;31.74;42.87
16451;BME280;12243;42.708;23.310;2023-06-22T06:47:49;95491.63;;;31.31;43.42
16451;BME280;12243;42.708;23.310;2023-06-22T06:50:16;95490.84;;;31.19;43.40
16451;BME280;12243;42.708;23.310;2023-06-22T06:52:43;95491.00;;;31.13;44.21
16451;BME280;12243;42.708;23.310;2023-06-22T06:55:11;95482.44;;;30.99;44.16
16451;BME280;12243;42.708;23.310;2023-06-22T06:57:40;95486.38;;;31.08;44.44
16451;BME280;12243;42.708;23.310;2023-06-22T07:00:09;95489.31;;;30.90;45.61
16451;BME280;12243;42.708;23.310;2023-06-22T07:02:38;95488.00;;;31.09;45.10
16451;BME280;12243;42.708;23.310;2023-06-22T07:05:06;95478.03;;;31.26;44.52
16451;BME280;12243;42.708;23.310;2023-06-22T07:07:33;95480.63;;;31.55;43.54
16451;BME280;12243;42.708;23.310;2023-06-22T07:10:00;95488.44;;;31.73;43.51
16451;BME280;12243;42.708;23.310;2023-06-22T07:12:30;95486.66;;;32.01;42.02
16451;BME280;12243;42.708;23.310;2023-06-22T07:15:02;95485.94;;;31.89;41.87
16451;BME280;12243;42.708;23.310;2023-06-22T07:17:29;95492.59;;;32.03;41.84
16451;BME280;12243;42.708;23.310;2023-06-22T07:19:56;95499.22;;;32.17;41.58
16451;BME280;12243;42.708;23.310;2023-06-22T07:22:23;95486.13;;;32.53;41.89
16451;BME280;12243;42.708;23.310;2023-06-22T07:24:50;95483.09;;;32.71;41.72
16451;BME280;12243;42.708;23.310;2023-06-22T07:27:17;95478.03;;;32.53;41.69
16451;BME280;12243;42.708;23.310;2023-06-22T07:29:46;95483.41;;;32.48;41.73
16451;BME280;12243;42.708;23.310;2023-06-22T07:32:13;95484.28;;;32.32;42.02
16451;BME280;12243;42.708;23.310;2023-06-22T07:34:40;95485.94;;;32.11;42.59
16451;BME280;12243;42.708;23.310;2023-06-22T07:37:08;95493.09;;;32.22;42.07
16451;BME280;12243;42.708;23.310;2023-06-22T07:39:35;95492.13;;;32.11;42.72
16451;BME280;12243;42.708;23.310;2023-06-22T07:42:04;95492.09;;;32.06;43.93
16451;BME280;12243;42.708;23.310;2023-06-22T07:44:31;95496.09;;;32.25;43.18
16451;BME280;12243;42.708;23.310;2023-06-22T07:46:59;95489.84;;;32.25;43.68
16451;BME280;12243;42.708;23.310;2023-06-22T07:49:28;95489.00;;;31.97;43.18
16451;BME280;12243;42.708;23.310;2023-06-22T07:51:55;95496.84;;;31.99;43.87
16451;BME280;12243;42.708;23.310;2023-06-22T07:54:21;95486.66;;;32.01;43.92
16451;BME280;12243;42.708;23.310;2023-06-22T07:56:48;95491.34;;;31.89;44.01
16451;BME280;12243;42.708;23.310;2023-06-22T07:59:15;95488.44;;;31.73;44.73
16451;BME280;12243;42.708;23.310;2023-06-22T08:01:42;95467.22;;;31.60;44.20
16451;BME280;12243;42.708;23.310;2023-06-22T08:04:11;95474.25;;;31.61;45.44
16451;BME280;12243;42.708;23.310;2023-06-22T08:06:37;95472.56;;;31.77;44.95
16451;BME280;12243;42.708;23.310;2023-06-22T08:09:04;95472.78;;;31.92;44.84
16451;BME280;12243;42.708;23.310;2023-06-22T08:11:31;95461.97;;;31.87;45.66
16451;BME280;12243;42.708;23.310;2023-06-22T08:13:59;95463.41;;;31.95;45.17
16451;BME280;12243;42.708;23.310;2023-06-22T08:16:26;95463.00;;;32.08;45.19
16451;BME280;12243;42.708;23.310;2023-06-22T08:18:53;95457.31;;;32.32;44.78
16451;BME280;12243;42.708;23.310;2023-06-22T08:21:21;95457.13;;;32.65;44.87
16451;BME280;12243;42.708;23.310;2023-06-22T08:23:48;95463.56;;;33.24;42.68
16451;BME280;12243;42.708;23.310;2023-06-22T08:26:15;95454.09;;;33.21;42.19
16451;BME280;12243;42.708;23.310;2023-06-22T08:28:42;95453.22;;;33.10;43.26
16451;BME280;12243;42.708;23.310;2023-06-22T08:31:09;95459.19;;;33.17;42.94
16451;BME280;12243;42.708;23.310;2023-06-22T08:33:37;95454.09;;;33.26;42.32
16451;BME280;12243;42.708;23.310;2023-06-22T08:36:05;95457.72;;;32.67;43.93
16451;BME280;12243;42.708;23.310;2023-06-22T08:38:35;95449.19;;;32.26;44.95
16451;BME280;12243;42.708;23.310;2023-06-22T08:41:02;95452.31;;;32.18;45.77
16451;BME280;12243;42.708;23.310;2023-06-22T08:43:28;95450.84;;;32.55;45.71
16451;BME280;12243;42.708;23.310;2023-06-22T08:45:55;95460.16;;;33.01;44.91
16451;BME280;12243;42.708;23.310;2023-06-22T08:48:22;95453.41;;;33.41;42.23
16451;BME280;12243;42.708;23.310;2023-06-22T08:50:49;95450.09;;;33.76;40.95
16451;BME280;12243;42.708;23.310;2023-06-22T08:53:16;95446.19;;;34.04;38.95
16451;BME280;12243;42.708;23.310;2023-06-22T08:55:45;95439.44;;;34.07;38.85
16451;BME280;12243;42.708;23.310;2023-06-22T08:58:11;95437.47;;;33.97;39.24
16451;BME280;12243;42.708;23.310;2023-06-22T09:00:38;95439.09;;;33.93;40.64
16451;BME280;12243;42.708;23.310;2023-06-22T09:03:05;95435.50;;;33.77;39.47
16451;BME280;12243;42.708;23.310;2023-06-22T09:05:33;95439.03;;;33.78;40.20
16451;BME280;12243;42.708;23.310;2023-06-22T09:08:00;95429.44;;;34.07;38.58
16451;BME280;12243;42.708;23.310;2023-06-22T09:10:27;95430.03;;;34.25;39.66
16451;BME280;12243;42.708;23.310;2023-06-22T09:12:56;95440.91;;;34.55;38.83
16451;BME280;12243;42.708;23.310;2023-06-22T09:15:24;95436.22;;;34.15;38.13
16451;BME280;12243;42.708;23.310;2023-06-22T09:17:53;95435.28;;;33.84;38.64
16451;BME280;12243;42.708;23.310;2023-06-22T09:20:21;95431.44;;;33.75;37.80
16451;BME280;12243;42.708;23.310;2023-06-22T09:22:48;95435.38;;;34.09;38.81
16451;BME280;12243;42.708;23.310;2023-06-22T09:25:15;95434.38;;;34.36;37.31
16451;BME280;12243;42.708;23.310;2023-06-22T09:27:42;95435.97;;;34.22;36.86
16451;BME280;12243;42.708;23.310;2023-06-22T09:30:11;95432.59;;;33.99;38.35
16451;BME280;12243;42.708;23.310;2023-06-22T09:32:38;95431.47;;;33.85;38.25
16451;BME280;12243;42.708;23.310;2023-06-22T09:35:06;95442.84;;;33.92;40.01
16451;BME280;12243;42.708;23.310;2023-06-22T09:37:34;95447.41;;;33.81;38.35
16451;BME280;12243;42.708;23.310;2023-06-22T09:40:01;95440.72;;;33.94;39.20
16451;BME280;12243;42.708;23.310;2023-06-22T09:42:33;95441.63;;;34.20;37.24
16451;BME280;12243;42.708;23.310;2023-06-22T09:45:00;95444.13;;;34.47;37.67
16451;BME280;12243;42.708;23.310;2023-06-22T09:47:29;95428.47;;;34.95;36.84
16451;BME280;12243;42.708;23.310;2023-06-22T09:49:56;95432.19;;;35.55;35.92
16451;BME280;12243;42.708;23.310;2023-06-22T09:52:25;95426.41;;;35.83;34.75
16451;BME280;12243;42.708;23.310;2023-06-22T09:54:52;95417.59;;;35.46;35.23
16451;BME280;12243;42.708;23.310;2023-06-22T09:57:19;95427.66;;;35.25;36.12
16451;BME280;12243;42.708;23.310;2023-06-22T09:59:46;95425.16;;;35.39;36.32
16451;BME280;12243;42.708;23.310;2023-06-22T10:02:13;95415.97;;;35.35;36.33
16451;BME280;12243;42.708;23.310;2023-06-22T10:04:41;95419.19;;;35.47;36.45
16451;BME280;12243;42.708;23.310;2023-06-22T10:07:08;95414.81;;;35.72;35.70
16451;BME280;12243;42.708;23.310;2023-06-22T10:09:34;95418.50;;;35.91;35.72
16451;BME280;12243;42.708;23.310;2023-06-22T10:12:01;95412.75;;;36.13;34.97
16451;BME280;12243;42.708;23.310;2023-06-22T10:14:28;95405.41;;;36.14;34.38
16451;BME280;12243;42.708;23.310;2023-06-22T10:16:55;95410.94;;;36.48;34.35
16451;BME280;12243;42.708;23.310;2023-06-22T10:19:22;95409.91;;;36.73;33.74
16451;BME280;12243;42.708;23.310;2023-06-22T10:21:51;95409.63;;;36.75;34.12
16451;BME280;12243;42.708;23.310;2023-06-22T10:24:18;95405.50;;;36.82;33.15
16451;BME280;12243;42.708;23.310;2023-06-22T10:26:44;95402.34;;;36.70;33.59
16451;BME280;12243;42.708;23.310;2023-06-22T10:29:11;95410.09;;;36.82;33.33
16451;BME280;12243;42.708;23.310;2023-06-22T10:31:38;95402.09;;;36.95;32.58
16451;BME280;12243;42.708;23.310;2023-06-22T10:34:05;95398.81;;;37.04;32.67
16451;BME280;12243;42.708;23.310;2023-06-22T10:36:32;95398.13;;;37.17;32.48
16451;BME280;12243;42.708;23.310;2023-06-22T10:39:00;95398.78;;;37.33;31.72
16451;BME280;12243;42.708;23.310;2023-06-22T10:41:28;95391.38;;;37.14;31.71
16451;BME280;12243;42.708;23.310;2023-06-22T10:43:56;95395.94;;;36.56;32.66
16451;BME280;12243;42.708;23.310;2023-06-22T10:46:24;95380.91;;;36.29;33.63
16451;BME280;12243;42.708;23.310;2023-06-22T10:48:52;95389.22;;;35.93;34.01
16451;BME280;12243;42.708;23.310;2023-06-22T10:51:20;95389.63;;;35.66;34.04
16451;BME280;12243;42.708;23.310;2023-06-22T10:53:47;95383.03;;;35.83;33.75
16451;BME280;12243;42.708;23.310;2023-06-22T10:56:15;95379.84;;;36.25;33.28
16451;BME280;12243;42.708;23.310;2023-06-22T10:58:42;95377.53;;;36.47;32.74
16451;BME280;12243;42.708;23.310;2023-06-22T11:01:09;95383.38;;;36.65;32.68
16451;BME280;12243;42.708;23.310;2023-06-22T11:03:36;95378.72;;;36.70;32.90
16451;BME280;12243;42.708;23.310;2023-06-22T11:06:03;95382.56;;;36.99;33.23
16451;BME280;12243;42.708;23.310;2023-06-22T11:08:30;95381.44;;;37.29;31.44
16451;BME280;12243;42.708;23.310;2023-06-22T11:10:57;95370.78;;;37.08;31.86
16451;BME280;12243;42.708;23.310;2023-06-22T11:13:25;95369.28;;;36.63;32.25
16451;BME280;12243;42.708;23.310;2023-06-22T11:15:52;95372.19;;;36.37;32.38
16451;BME280;12243;42.708;23.310;2023-06-22T11:18:19;95365.03;;;36.46;31.29
16451;BME280;12243;42.708;23.310;2023-06-22T11:20:48;95357.28;;;36.69;31.05
16451;BME280;12243;42.708;23.310;2023-06-22T11:23:15;95358.59;;;37.06;31.86
16451;BME280;12243;42.708;23.310;2023-06-22T11:25:42;95356.41;;;37.08;30.81
16451;BME280;12243;42.708;23.310;2023-06-22T11:28:09;95364.03;;;37.30;31.27
16451;BME280;12243;42.708;23.310;2023-06-22T11:30:37;95363.69;;;37.36;31.05
16451;BME280;12243;42.708;23.310;2023-06-22T11:33:04;95357.75;;;37.10;30.63
16451;BME280;12243;42.708;23.310;2023-06-22T11:35:31;95357.75;;;36.42;31.62
16451;BME280;12243;42.708;23.310;2023-06-22T11:37:58;95348.25;;;35.95;32.68
16451;BME280;12243;42.708;23.310;2023-06-22T11:40:25;95357.94;;;35.57;33.46
16451;BME280;12243;42.708;23.310;2023-06-22T11:42:52;95349.16;;;35.15;34.02
16451;BME280;12243;42.708;23.310;2023-06-22T11:45:19;95356.78;;;34.57;35.14
16451;BME280;12243;42.708;23.310;2023-06-22T11:47:48;95348.88;;;34.20;35.87
16451;BME280;12243;42.708;23.310;2023-06-22T11:50:15;95342.03;;;33.86;35.87
16451;BME280;12243;42.708;23.310;2023-06-22T11:52:42;95337.91;;;33.63;36.68
16451;BME280;12243;42.708;23.310;2023-06-22T11:55:09;95336.75;;;33.44;37.39
16451;BME280;12243;42.708;23.310;2023-06-22T11:57:37;95334.94;;;33.07;38.13
16451;BME280;12243;42.708;23.310;2023-06-22T12:00:05;95343.56;;;32.99;38.07
16451;BME280;12243;42.708;23.310;2023-06-22T12:02:41;95343.41;;;32.84;39.57
16451;BME280;12243;42.708;23.310;2023-06-22T12:05:09;95338.66;;;32.59;40.27
16451;BME280;12243;42.708;23.310;2023-06-22T12:07:37;95341.44;;;32.37;41.88
16451;BME280;12243;42.708;23.310;2023-06-22T12:10:05;95340.69;;;32.14;42.58
16451;BME280;12243;42.708;23.310;2023-06-22T12:12:32;95344.03;;;31.50;44.00
16451;BME280;12243;42.708;23.310;2023-06-22T12:14:59;95354.09;;;31.16;45.45
16451;BME280;12243;42.708;23.310;2023-06-22T12:17:29;95347.94;;;30.82;48.97
16451;BME280;12243;42.708;23.310;2023-06-22T12:19:56;95353.03;;;30.61;54.53
16451;BME280;12243;42.708;23.310;2023-06-22T12:22:26;95347.00;;;30.09;55.28
16451;BME280;12243;42.708;23.310;2023-06-22T12:24:53;95366.91;;;29.27;60.05
16451;BME280;12243;42.708;23.310;2023-06-22T12:27:23;95372.03;;;28.58;63.45
16451;BME280;12243;42.708;23.310;2023-06-22T12:29:50;95377.50;;;28.10;66.36
16451;BME280;12243;42.708;23.310;2023-06-22T12:32:17;95384.53;;;27.44;68.90
16451;BME280;12243;42.708;23.310;2023-06-22T12:34:44;95390.56;;;27.21;72.72
16451;BME280;12243;42.708;23.310;2023-06-22T12:37:12;95391.72;;;26.63;73.77
16451;BME280;12243;42.708;23.310;2023-06-22T12:39:43;95384.91;;;26.35;73.94
16451;BME280;12243;42.708;23.310;2023-06-22T12:42:10;95386.81;;;26.28;74.06
16451;BME280;12243;42.708;23.310;2023-06-22T12:44:38;95374.66;;;26.32;71.84
16451;BME280;12243;42.708;23.310;2023-06-22T12:47:07;95379.09;;;26.45;69.09
16451;BME280;12243;42.708;23.310;2023-06-22T12:49:34;95391.66;;;26.70;66.87
16451;BME280;12243;42.708;23.310;2023-06-22T12:52:01;95404.63;;;26.91;64.75